Pacific Hope — 3FLH6 — position and weather

sailwx.info

Track history (hours):
 
Tides and Currents Weather Stations Pressure Air Temp Water Temp Dewpoint Dewpoint Depression Visibility Wind Speed Wind Dir Waves Ship Positions

Pacific Hope

Last reported at 2016-Jun-18 21:33 UTC. Time now 2016-Jun-29 07:32 UTC.
Position N 01°16' E 104°13'.
Warning: this ship's position is 10 days out of date.

Length 169 m; draft 5.5 m.

Type: Cargo ship. MMSI: 351849000.

Date/timePositionNaut miles runAvg speedWind from/ knotsBaromVisibWave heightAir tempDewpointWater temp
2016-Jun-18 21:33N 01°16' E 104°13'1514.8
2016-Jun-18 20:33N 01°14' E 103°59'6 6.1
2016-Jun-18 19:31N 01°15' E 103°52'0 0.1
2016-Jun-18 18:31N 01°15' E 103°52'0 0.1
2016-Jun-18 17:28N 01°15' E 103°53'0 0.1
2016-Jun-18 16:22N 01°15' E 103°52'0 0.0
2016-Jun-18 15:28N 01°15' E 103°52'0 0.1
2016-Jun-18 14:31N 01°15' E 103°52'0 0.1
2016-Jun-18 13:31N 01°15' E 103°52'0 0.0
2016-Jun-18 12:31N 01°15' E 103°52'0 0.0
2016-Jun-18 11:31N 01°15' E 103°52'0 0.0
2016-Jun-18 10:31N 01°15' E 103°52'0 0.0
2016-Jun-18 09:31N 01°15' E 103°52'0 0.0
2016-Jun-18 08:31N 01°15' E 103°52'0 0.0
2016-Jun-18 07:28N 01°15' E 103°52'0 0.0
2016-Jun-18 06:28N 01°15' E 103°52'0 0.0
2016-Jun-18 05:31N 01°15' E 103°52'0 0.0
2016-Jun-18 04:28N 01°15' E 103°52'0 0.0
2016-Jun-18 03:31N 01°15' E 103°52'0 0.1
2016-Jun-18 02:28N 01°15' E 103°52'0 0.0
2016-Jun-18 01:28N 01°15' E 103°52'0 0.0
2016-Jun-18 00:25N 01°15' E 103°52'0 0.0
2016-Jun-17 23:31N 01°15' E 103°52'0 0.1
2016-Jun-17 22:31N 01°15' E 103°53'0 0.0
2016-Jun-17 21:28N 01°15' E 103°53'0 0.0
2016-Jun-17 20:28N 01°15' E 103°53'0 0.0
2016-Jun-17 19:28N 01°15' E 103°53'0 0.1
2016-Jun-17 18:28N 01°15' E 103°52'0 0.0
2016-Jun-17 17:28N 01°15' E 103°52'0 0.0
2016-Jun-17 16:31N 01°15' E 103°52'0 0.0
2016-Jun-17 15:28N 01°15' E 103°52'0 0.1
2016-Jun-17 14:28N 01°15' E 103°53'0 0.0
2016-Jun-17 13:31N 01°15' E 103°53'0 0.0
2016-Jun-17 12:28N 01°15' E 103°53'0 0.2
2016-Jun-17 11:33N 01°15' E 103°53'2 2.0
2016-Jun-17 10:33N 01°13' E 103°54'3 2.8
2016-Jun-17 09:33N 01°14' E 103°56'5 5.4
2016-Jun-17 08:33N 01°16' E 104°02'  
Track history (hours):
 
Tides and Currents Weather Stations Pressure Air Temp Water Temp Dewpoint Dewpoint Depression Visibility Wind Speed Wind Dir Waves Ship Positions

Pacific Hope

Last reported at 2016-Jun-18 21:33 UTC. Time now 2016-Jun-29 07:32 UTC.
Position N 01°16' E 104°13'.
Warning: this ship's position is 10 days out of date.

Length 169 m; draft 5.5 m.

Type: Cargo ship. MMSI: 351849000.

Date/timePositionNaut miles runAvg speedWind from/ knotsBaromVisibWave heightAir tempDewpointWater temp
2016-Jun-18 21:33N 01°16' E 104°13'1514.8
2016-Jun-18 20:33N 01°14' E 103°59'6 6.1
2016-Jun-18 19:31N 01°15' E 103°52'0 0.1
2016-Jun-18 18:31N 01°15' E 103°52'0 0.1
2016-Jun-18 17:28N 01°15' E 103°53'0 0.1
2016-Jun-18 16:22N 01°15' E 103°52'0 0.0
2016-Jun-18 15:28N 01°15' E 103°52'0 0.1
2016-Jun-18 14:31N 01°15' E 103°52'0 0.1
2016-Jun-18 13:31N 01°15' E 103°52'0 0.0
2016-Jun-18 12:31N 01°15' E 103°52'0 0.0
2016-Jun-18 11:31N 01°15' E 103°52'0 0.0
2016-Jun-18 10:31N 01°15' E 103°52'0 0.0
2016-Jun-18 09:31N 01°15' E 103°52'0 0.0
2016-Jun-18 08:31N 01°15' E 103°52'0 0.0
2016-Jun-18 07:28N 01°15' E 103°52'0 0.0
2016-Jun-18 06:28N 01°15' E 103°52'0 0.0
2016-Jun-18 05:31N 01°15' E 103°52'0 0.0
2016-Jun-18 04:28N 01°15' E 103°52'0 0.0
2016-Jun-18 03:31N 01°15' E 103°52'0 0.1
2016-Jun-18 02:28N 01°15' E 103°52'0 0.0
2016-Jun-18 01:28N 01°15' E 103°52'0 0.0
2016-Jun-18 00:25N 01°15' E 103°52'0 0.0
2016-Jun-17 23:31N 01°15' E 103°52'0 0.1
2016-Jun-17 22:31N 01°15' E 103°53'0 0.0
2016-Jun-17 21:28N 01°15' E 103°53'0 0.0
2016-Jun-17 20:28N 01°15' E 103°53'0 0.0
2016-Jun-17 19:28N 01°15' E 103°53'0 0.1
2016-Jun-17 18:28N 01°15' E 103°52'0 0.0
2016-Jun-17 17:28N 01°15' E 103°52'0 0.0
2016-Jun-17 16:31N 01°15' E 103°52'0 0.0
2016-Jun-17 15:28N 01°15' E 103°52'0 0.1
2016-Jun-17 14:28N 01°15' E 103°53'0 0.0
2016-Jun-17 13:31N 01°15' E 103°53'0 0.0
2016-Jun-17 12:28N 01°15' E 103°53'0 0.2
2016-Jun-17 11:33N 01°15' E 103°53'2 2.0
2016-Jun-17 10:33N 01°13' E 103°54'3 2.8
2016-Jun-17 09:33N 01°14' E 103°56'5 5.4
2016-Jun-17 08:33N 01°16' E 104°02'  

Dump ship's entire track history